Time;durP1;ratioP1;P1;durP2;ratioP2;P2;SDS_P1;SDS_P2;PMS_P1;PMS_P2;Temp;Humidity;BMP_temperature;BMP_pressure;BME280_temperature;BME280_humidity;BME280_pressure;Samples;Min_cycle;Max_cycle;Signal;HPM_P1;HPM_P2
2023/11/28 00:01:05;;;;;;;20.52;8.70;;;;;;;-0.70;100.00;100833.78;5023285;28;20124;-81
2023/11/28 00:03:32;;;;;;;14.88;6.88;;;;;;;-0.88;100.00;100827.91;5039350;28;20040;-80
2023/11/28 00:05:57;;;;;;;19.35;6.68;;;;;;;-1.00;100.00;100828.75;5022529;28;20132;-80
2023/11/28 00:08:28;;;;;;;15.50;7.00;;;;;;;-1.07;100.00;100839.78;5022714;28;20025;-81
2023/11/28 00:10:53;;;;;;;18.30;9.95;;;;;;;-1.21;100.00;100838.88;5055579;28;20029;-81
2023/11/28 00:13:26;;;;;;;23.13;9.13;;;;;;;-1.33;100.00;100837.03;5022566;28;20045;-80
2023/11/28 00:15:52;;;;;;;20.40;10.30;;;;;;;-1.41;100.00;100845.41;5022554;28;20135;-81
2023/11/28 00:18:18;;;;;;;23.95;12.02;;;;;;;-1.43;100.00;100849.09;5038439;28;20197;-81
2023/11/28 00:20:43;;;;;;;23.83;11.48;;;;;;;-1.36;100.00;100850.41;5022333;28;20040;-80
2023/11/28 00:23:10;;;;;;;11.65;6.20;;;;;;;-1.09;100.00;100836.41;5039471;28;20045;-81
2023/11/28 00:25:35;;;;;;;10.48;4.85;;;;;;;-0.82;100.00;100839.03;5021964;28;20406;-80
2023/11/28 00:28:01;;;;;;;19.17;8.70;;;;;;;-0.74;100.00;100850.81;5054968;28;20021;-80
2023/11/28 00:30:27;;;;;;;18.70;9.38;;;;;;;-0.92;100.00;100849.34;5038354;28;20390;-81
2023/11/28 00:32:52;;;;;;;19.42;10.23;;;;;;;-1.13;100.00;100847.16;5022162;28;20036;-81
2023/11/28 00:35:18;;;;;;;18.98;7.28;;;;;;;-1.26;100.00;100837.50;5022186;28;20043;-81
2023/11/28 00:37:45;;;;;;;15.98;7.28;;;;;;;-1.33;100.00;100844.94;5055776;28;20484;-80
2023/11/28 00:40:11;;;;;;;16.98;6.45;;;;;;;-1.55;100.00;100834.91;5021794;28;20154;-80
2023/11/28 00:42:40;;;;;;;16.83;5.18;;;;;;;-1.67;100.00;100843.56;5005695;28;20033;-81
2023/11/28 00:45:07;;;;;;;14.35;4.95;;;;;;;-1.68;100.00;100840.09;5021803;28;20378;-81
2023/11/28 00:47:39;;;;;;;12.35;7.03;;;;;;;-1.62;100.00;100844.97;5054761;28;20029;-81
2023/11/28 00:50:05;;;;;;;34.35;15.10;;;;;;;-1.44;100.00;100850.06;5021782;28;20464;-81
2023/11/28 00:52:36;;;;;;;23.88;13.77;;;;;;;-1.12;100.00;100863.81;5006261;28;20123;-80
2023/11/28 00:55:08;;;;;;;18.40;7.85;;;;;;;-1.00;100.00;100870.97;5022431;28;20052;-80
2023/11/28 00:57:36;;;;;;;15.15;7.38;;;;;;;-0.97;100.00;100862.00;5021771;28;20047;-81
2023/11/28 01:00:10;;;;;;;12.18;6.18;;;;;;;-0.93;100.00;100866.13;5021942;28;20528;-80
2023/11/28 01:02:37;;;;;;;12.90;7.13;;;;;;;-0.97;100.00;100872.56;5038301;28;20032;-80
2023/11/28 01:05:04;;;;;;;13.27;5.53;;;;;;;-1.03;100.00;100868.53;5037237;28;20476;-80
2023/11/28 01:07:32;;;;;;;7.68;4.68;;;;;;;-1.02;100.00;100875.50;5037756;28;20033;-80
2023/11/28 01:09:58;;;;;;;17.60;7.18;;;;;;;-0.95;100.00;100876.81;5037787;28;20494;-80
2023/11/28 01:12:25;;;;;;;6.93;3.95;;;;;;;-0.89;100.00;100871.13;5021564;28;20039;-80
2023/11/28 01:14:51;;;;;;;11.50;6.00;;;;;;;-0.83;100.00;100879.59;5038188;28;20037;-80
2023/11/28 01:17:17;;;;;;;8.90;5.05;;;;;;;-0.75;100.00;100866.72;5021223;28;20161;-81
2023/11/28 01:19:42;;;;;;;13.57;5.05;;;;;;;-0.60;100.00;100860.44;5021247;28;20044;-80
2023/11/28 01:22:08;;;;;;;14.88;5.25;;;;;;;-0.52;100.00;100846.72;5020893;28;20040;-80
2023/11/28 01:24:35;;;;;;;12.52;5.35;;;;;;;-0.46;100.00;100856.88;5021118;28;20430;-80
2023/11/28 01:27:02;;;;;;;11.30;5.25;;;;;;;-0.50;100.00;100860.69;5021262;28;20041;-80
2023/11/28 01:29:28;;;;;;;14.40;5.68;;;;;;;-0.57;100.00;100854.97;5037675;28;20037;-80
2023/11/28 01:31:53;;;;;;;10.68;5.20;;;;;;;-0.66;100.00;100852.94;5021257;28;20044;-80
2023/11/28 01:34:19;;;;;;;13.50;6.18;;;;;;;-0.75;100.00;100845.59;5020983;28;20418;-80
2023/11/28 01:36:47;;;;;;;20.48;6.45;;;;;;;-0.90;100.00;100842.16;5037443;28;20044;-80
2023/11/28 01:39:12;;;;;;;18.75;7.60;;;;;;;-1.05;100.00;100857.22;5021189;28;20060;-80
2023/11/28 01:41:39;;;;;;;14.75;5.88;;;;;;;-1.24;100.00;100849.63;5020692;28;20456;-80
2023/11/28 01:44:07;;;;;;;19.52;7.55;;;;;;;-1.36;100.00;100859.16;5020863;28;20037;-81
2023/11/28 01:46:39;;;;;;;12.85;5.60;;;;;;;-1.38;100.00;100853.13;5020730;28;20040;-80
2023/11/28 01:49:05;;;;;;;16.70;6.32;;;;;;;-1.41;100.00;100852.50;5021253;28;20043;-80
2023/11/28 01:51:30;;;;;;;15.70;5.60;;;;;;;-1.45;100.00;100837.81;5020649;28;20033;-80
2023/11/28 01:54:01;;;;;;;12.43;5.00;;;;;;;-1.45;100.00;100854.47;5020318;28;20395;-81
2023/11/28 01:56:29;;;;;;;15.82;5.43;;;;;;;-1.43;100.00;100849.09;5020631;28;20418;-81
2023/11/28 01:58:55;;;;;;;15.60;4.10;;;;;;;-1.46;100.00;100850.13;5020616;28;20119;-81
2023/11/28 02:01:24;;;;;;;16.50;4.75;;;;;;;-1.55;100.00;100837.53;5036432;28;20117;-81
2023/11/28 02:03:50;;;;;;;11.40;5.10;;;;;;;-1.57;100.00;100852.59;5020651;28;20112;-81
2023/11/28 02:06:19;;;;;;;13.05;4.82;;;;;;;-1.65;100.00;100847.81;5053263;28;20029;-81
2023/11/28 02:08:45;;;;;;;8.82;3.40;;;;;;;-1.59;100.00;100850.06;5020114;28;20075;-81
2023/11/28 02:11:11;;;;;;;9.32;4.20;;;;;;;-1.56;100.00;100857.78;5036329;28;20052;-80
2023/11/28 02:13:37;;;;;;;12.73;4.70;;;;;;;-1.58;100.00;100869.38;5004052;28;20087;-81
2023/11/28 02:16:10;;;;;;;8.95;3.97;;;;;;;-1.71;100.00;100864.00;5020179;28;20040;-81
2023/11/28 02:18:39;;;;;;;5.20;3.22;;;;;;;-1.44;100.00;100861.44;5036375;28;20037;-81
2023/11/28 02:21:05;;;;;;;9.02;3.80;;;;;;;-1.11;100.00;100855.81;5036465;28;20025;-80
2023/11/28 02:23:32;;;;;;;9.45;3.85;;;;;;;-1.06;100.00;100849.38;5020142;28;20041;-80
2023/11/28 02:26:02;;;;;;;7.80;4.03;;;;;;;-1.19;100.00;100857.25;5036490;28;20025;-81
2023/11/28 02:28:28;;;;;;;10.95;4.50;;;;;;;-1.44;100.00;100869.34;5036203;28;20524;-81
2023/11/28 02:31:00;;;;;;;9.82;3.92;;;;;;;-1.61;100.00;100874.84;5036422;28;20120;-81
2023/11/28 02:33:29;;;;;;;7.30;3.67;;;;;;;-1.79;100.00;100869.75;5052903;28;20029;-81
2023/11/28 02:35:54;;;;;;;13.68;5.80;;;;;;;-1.66;100.00;100867.22;5019913;28;20021;-81
2023/11/28 02:38:20;;;;;;;8.38;3.55;;;;;;;-1.51;100.00;100861.91;5052792;28;20036;-81
2023/11/28 02:40:45;;;;;;;6.88;3.70;;;;;;;-1.45;100.00;100858.91;5019745;28;20033;-81
2023/11/28 02:43:11;;;;;;;8.13;3.30;;;;;;;-1.53;100.00;100864.66;5019822;28;20037;-80
2023/11/28 02:45:37;;;;;;;9.48;3.17;;;;;;;-1.69;100.00;100866.53;5020075;28;20032;-81
2023/11/28 02:48:03;;;;;;;7.60;3.25;;;;;;;-1.73;100.00;100870.31;5019408;28;20361;-81
2023/11/28 02:50:29;;;;;;;12.63;3.90;;;;;;;-1.72;100.00;100867.59;5019708;28;20128;-81
2023/11/28 02:52:54;;;;;;;9.82;3.90;;;;;;;-1.79;100.00;100858.38;5019690;28;20035;-81
2023/11/28 02:55:20;;;;;;;10.05;3.58;;;;;;;-1.88;100.00;100849.25;5019675;28;20070;-80
2023/11/28 02:57:46;;;;;;;9.63;3.75;;;;;;;-2.03;100.00;100852.81;5036073;28;20036;-81
2023/11/28 03:00:15;;;;;;;10.38;3.85;;;;;;;-2.06;100.00;100863.53;5035631;28;20451;-81
2023/11/28 03:02:41;;;;;;;8.75;3.63;;;;;;;-2.00;100.00;100871.91;5052038;28;20037;-81
2023/11/28 03:05:07;;;;;;;7.10;4.57;;;;;;;-1.97;100.00;100870.88;5035952;28;20045;-81
2023/11/28 03:07:34;;;;;;;5.35;2.85;;;;;;;-1.56;100.00;100855.16;5035343;28;20029;-81
2023/11/28 03:10:00;;;;;;;8.13;3.75;;;;;;;-1.16;100.00;100849.16;5035798;28;20452;-80
2023/11/28 03:12:26;;;;;;;7.07;4.20;;;;;;;-0.99;100.00;100854.19;5019568;28;20037;-80
2023/11/28 03:14:51;;;;;;;10.15;4.13;;;;;;;-1.01;100.00;100849.94;5035733;28;20029;-81
2023/11/28 03:17:17;;;;;;;12.57;4.80;;;;;;;-1.11;100.00;100853.19;5019461;28;20041;-80
2023/11/28 03:19:43;;;;;;;10.30;3.90;;;;;;;-1.26;100.00;100861.25;5019291;28;20472;-80
2023/11/28 03:22:08;;;;;;;12.40;3.67;;;;;;;-1.39;100.00;100859.38;5019173;28;20124;-80
2023/11/28 03:24:44;;;;;;;13.00;4.63;;;;;;;-1.44;100.00;100848.25;5019457;28;20047;-80
2023/11/28 03:27:14;;;;;;;9.73;5.43;;;;;;;-1.58;100.00;100840.38;5036107;28;20029;-80
2023/11/28 03:29:39;;;;;;;12.38;4.05;;;;;;;-1.74;100.00;100845.75;5037654;28;20472;-81
2023/11/28 03:32:06;;;;;;;6.47;3.72;;;;;;;-1.85;100.00;100838.50;5023288;28;20044;-81
2023/11/28 03:34:31;;;;;;;6.25;4.00;;;;;;;-1.85;100.00;100848.22;5039375;28;20421;-81
2023/11/28 03:36:57;;;;;;;11.68;4.38;;;;;;;-2.02;100.00;100850.06;5057024;28;20029;-81
2023/11/28 03:39:24;;;;;;;7.50;4.97;;;;;;;-2.15;100.00;100845.63;5055130;28;20036;-82
2023/11/28 03:41:55;;;;;;;10.82;5.95;;;;;;;-2.30;100.00;100858.78;5023698;28;20065;-81
2023/11/28 03:44:21;;;;;;;12.18;4.75;;;;;;;-2.44;100.00;100837.66;5039220;28;20033;-81
2023/11/28 03:46:47;;;;;;;10.77;4.97;;;;;;;-2.40;100.00;100846.25;5023033;28;20079;-81
2023/11/28 03:49:16;;;;;;;7.97;3.78;;;;;;;-2.57;100.00;100849.84;5023013;28;20029;-81
2023/11/28 03:51:41;;;;;;;10.63;5.25;;;;;;;-2.72;100.00;100844.56;5022982;28;20025;-81
2023/11/28 03:54:07;;;;;;;9.73;4.35;;;;;;;-2.81;100.00;100847.69;5038869;28;20391;-81
2023/11/28 03:56:32;;;;;;;11.82;4.90;;;;;;;-2.83;100.00;100840.81;5022923;28;20463;-81
2023/11/28 03:59:06;;;;;;;9.75;4.65;;;;;;;-2.69;100.00;100846.16;5023533;28;20072;-81
2023/11/28 04:01:34;;;;;;;;;;;;;;;-2.62;100.00;100847.50;5023961;28;20051;-80
2023/11/28 04:04:00;;;;;;;8.82;4.55;;;;;;;-2.56;100.00;100847.16;5055457;28;20359;-80
2023/11/28 04:06:25;;;;;;;6.40;4.20;;;;;;;-2.59;100.00;100842.06;5022451;28;20052;-81
2023/11/28 04:08:54;;;;;;;15.88;4.50;;;;;;;-2.65;100.00;100837.13;5022106;28;20029;-80
2023/11/28 04:11:19;;;;;;;6.82;3.90;;;;;;;-2.53;100.00;100841.69;5038971;28;20079;-80
2023/11/28 04:13:50;;;;;;;8.05;4.10;;;;;;;-2.47;100.00;100836.06;5022424;28;20071;-80
2023/11/28 04:16:19;;;;;;;7.45;5.00;;;;;;;-2.50;100.00;100840.66;5034653;28;20036;-81
2023/11/28 04:18:46;;;;;;;10.55;4.38;;;;;;;-2.49;100.00;100840.59;5021901;28;20036;-81
2023/11/28 04:21:15;;;;;;;17.00;4.35;;;;;;;-2.32;100.00;100834.31;5021969;28;20041;-81
2023/11/28 04:23:45;;;;;;;9.02;4.28;;;;;;;-2.27;100.00;100837.53;5022225;28;20139;-81
2023/11/28 04:26:11;;;;;;;11.43;4.65;;;;;;;-2.19;100.00;100834.44;5022237;28;20068;-80
2023/11/28 04:28:36;;;;;;;13.27;4.53;;;;;;;-2.12;100.00;100841.00;5038662;28;20056;-81
2023/11/28 04:31:05;;;;;;;12.55;5.53;;;;;;;-1.95;100.00;100840.00;5038499;28;20081;-81
2023/11/28 04:33:31;;;;;;;12.95;5.22;;;;;;;-1.81;100.00;100834.72;5038213;28;20464;-81
2023/11/28 04:35:57;;;;;;;10.95;4.68;;;;;;;-1.65;100.00;100834.63;5022141;28;20033;-81
2023/11/28 04:38:23;;;;;;;9.50;5.18;;;;;;;-1.52;100.00;100837.34;5022165;28;20044;-81
2023/11/28 04:40:49;;;;;;;10.95;5.50;;;;;;;-1.41;100.00;100834.88;5038206;28;20032;-81
2023/11/28 04:43:15;;;;;;;11.35;5.28;;;;;;;-1.29;100.00;100840.31;5038316;28;20090;-82
2023/11/28 04:45:40;;;;;;;11.93;5.15;;;;;;;-1.24;100.00;100841.72;5054669;28;20471;-80
2023/11/28 04:48:09;;;;;;;11.15;4.25;;;;;;;-1.17;100.00;100842.16;5021911;28;20044;-81
2023/11/28 04:50:35;;;;;;;12.77;4.05;;;;;;;-1.06;100.00;100839.66;5021841;28;20055;-81
2023/11/28 04:53:00;;;;;;;12.50;4.75;;;;;;;-0.97;100.00;100836.47;5021590;28;20087;-81
2023/11/28 04:55:26;;;;;;;11.60;3.88;;;;;;;-0.83;100.00;100835.53;5021699;28;20029;-81
2023/11/28 04:57:58;;;;;;;7.80;4.38;;;;;;;-0.76;100.00;100838.66;5054714;28;20025;-81
2023/11/28 05:00:24;;;;;;;13.00;5.10;;;;;;;-0.71;100.00;100837.38;5037881;28;20029;-80
2023/11/28 05:02:49;;;;;;;7.03;4.45;;;;;;;-0.66;100.00;100839.72;5037977;28;20048;-81
2023/11/28 05:05:18;;;;;;;14.35;5.07;;;;;;;-0.64;100.00;100837.81;5037657;28;20471;-81
2023/11/28 05:07:46;;;;;;;8.00;4.45;;;;;;;-0.62;100.00;100835.94;5037898;28;20037;-80
2023/11/28 05:10:14;;;;;;;15.73;4.90;;;;;;;-0.62;100.00;100840.38;5021454;28;20032;-81
2023/11/28 05:12:40;;;;;;;10.15;5.63;;;;;;;-0.62;100.00;100845.66;5021408;28;20029;-82
2023/11/28 05:15:06;;;;;;;9.68;4.65;;;;;;;-0.59;100.00;100843.63;5037407;28;20051;-80
2023/11/28 05:17:32;;;;;;;12.55;5.13;;;;;;;-0.57;100.00;100847.03;5038016;28;20033;-81
2023/11/28 05:19:57;;;;;;;13.82;4.15;;;;;;;-0.57;100.00;100835.63;5021276;28;20486;-81
2023/11/28 05:22:26;;;;;;;15.82;5.75;;;;;;;-0.54;100.00;100836.25;5021041;28;20021;-81
2023/11/28 05:24:54;;;;;;;14.00;5.57;;;;;;;-0.54;100.00;100836.25;5020771;28;20144;-81
2023/11/28 05:27:20;;;;;;;13.57;4.63;;;;;;;-0.52;100.00;100836.16;5054131;28;20464;-80
2023/11/28 05:29:45;;;;;;;11.55;4.97;;;;;;;-0.51;100.00;100843.97;5053740;28;20048;-81
2023/11/28 05:32:11;;;;;;;16.10;5.13;;;;;;;-0.48;100.00;100849.06;5037157;28;20051;-81
2023/11/28 05:34:37;;;;;;;10.05;4.57;;;;;;;-0.48;100.00;100838.50;5037412;28;20039;-80
2023/11/28 05:37:05;;;;;;;12.65;4.80;;;;;;;-0.49;100.00;100834.16;5021018;28;20033;-81
2023/11/28 05:39:34;;;;;;;9.57;4.45;;;;;;;-0.50;100.00;100826.34;5036988;28;20025;-81
2023/11/28 05:42:02;;;;;;;6.22;4.05;;;;;;;-0.47;100.00;100829.63;5020664;28;20398;-81
2023/11/28 05:44:30;;;;;;;8.68;4.43;;;;;;;-0.45;100.00;100832.16;5020844;28;20434;-81
2023/11/28 05:47:01;;;;;;;11.25;4.53;;;;;;;-0.44;100.00;100818.00;5037625;28;20048;-81
2023/11/28 05:49:27;;;;;;;14.00;5.88;;;;;;;-0.43;100.00;100829.41;5037173;28;20041;-80
2023/11/28 05:52:03;;;;;;;13.15;4.47;;;;;;;-0.46;100.00;100827.81;5037687;28;20457;-81
2023/11/28 05:54:29;;;;;;;12.52;4.22;;;;;;;-0.47;100.00;100834.06;5053744;28;20052;-81
2023/11/28 05:56:55;;;;;;;14.23;5.00;;;;;;;-0.48;100.00;100827.06;5037197;28;20540;-81
2023/11/28 05:59:24;;;;;;;11.90;4.32;;;;;;;-0.46;100.00;100822.53;5037458;28;20040;-81
2023/11/28 06:02:02;;;;;;;9.88;4.32;;;;;;;-0.39;100.00;100817.69;5053473;28;20032;-81
2023/11/28 06:04:31;;;;;;;11.90;3.58;;;;;;;-0.37;100.00;100819.28;5021136;28;20021;-81
2023/11/28 06:06:57;;;;;;;8.93;4.72;;;;;;;-0.32;100.00;100814.53;5036920;28;20032;-81
2023/11/28 06:09:28;;;;;;;7.78;4.30;;;;;;;-0.28;100.00;100815.16;5036822;28;20036;-81
2023/11/28 06:11:53;;;;;;;9.18;4.13;;;;;;;-0.22;100.00;100814.75;5020695;28;20040;-81
2023/11/28 06:14:21;;;;;;;17.30;5.90;;;;;;;-0.18;100.00;100818.88;5020170;28;20041;-81
2023/11/28 06:16:49;;;;;;;9.10;5.25;;;;;;;-0.20;100.00;100819.94;5020363;28;20036;-81
2023/11/28 06:19:15;;;;;;;9.68;4.65;;;;;;;-0.21;100.00;100819.09;5036559;28;20380;-81
2023/11/28 06:21:41;;;;;;;8.10;4.38;;;;;;;-0.23;100.00;100813.06;5019954;28;20028;-81
2023/11/28 06:24:07;;;;;;;12.50;4.60;;;;;;;-0.28;100.00;100812.53;5052588;28;20029;-81
2023/11/28 06:26:33;;;;;;;11.80;4.60;;;;;;;-0.30;100.00;100811.78;5020025;28;20495;-81
2023/11/28 06:29:02;;;;;;;12.52;4.38;;;;;;;-0.32;100.00;100821.59;5035894;28;20029;-80
2023/11/28 06:31:28;;;;;;;9.25;3.78;;;;;;;-0.35;100.00;100817.38;5018896;28;20094;-81
2023/11/28 06:33:54;;;;;;;9.23;4.18;;;;;;;-0.35;100.00;100813.88;5018650;28;20041;-80
2023/11/28 06:36:20;;;;;;;8.18;4.75;;;;;;;-0.39;100.00;100815.06;5018992;28;20064;-81
2023/11/28 06:38:46;;;;;;;10.75;3.90;;;;;;;-0.49;100.00;100818.31;5019545;28;20029;-80
2023/11/28 06:41:17;;;;;;;9.57;3.97;;;;;;;-0.59;100.00;100819.88;5035927;28;20036;-82
2023/11/28 06:43:43;;;;;;;7.55;4.22;;;;;;;-0.67;100.00;100817.75;5014455;28;20029;-81
2023/11/28 06:46:12;;;;;;;9.25;3.97;;;;;;;-0.64;100.00;100814.03;5036124;28;20025;-81
2023/11/28 06:48:37;;;;;;;9.55;4.35;;;;;;;-0.59;100.00;100808.47;5036612;28;20041;-81
2023/11/28 06:51:07;;;;;;;11.77;4.13;;;;;;;-0.57;100.00;100812.69;5036012;28;20442;-80
2023/11/28 06:53:34;;;;;;;6.75;4.15;;;;;;;-0.61;100.00;100813.84;5035713;28;20032;-81
2023/11/28 06:56:02;;;;;;;13.70;5.57;;;;;;;-0.71;100.00;100820.72;5036402;28;20043;-81
2023/11/28 06:58:28;;;;;;;13.57;5.65;;;;;;;-0.77;100.00;100821.94;5052575;28;20025;-81
2023/11/28 07:00:57;;;;;;;15.07;5.30;;;;;;;-0.83;100.00;100818.88;5035895;28;20025;-81
2023/11/28 07:03:23;;;;;;;11.93;5.15;;;;;;;-0.92;100.00;100812.41;5019938;28;20025;-81
2023/11/28 07:05:50;;;;;;;9.25;4.65;;;;;;;-0.95;100.00;100820.53;5019670;28;20044;-81
2023/11/28 07:08:16;;;;;;;10.38;4.88;;;;;;;-1.01;100.00;100819.13;5019733;28;20472;-82
2023/11/28 07:10:41;;;;;;;13.65;5.32;;;;;;;-1.02;100.00;100816.59;5052343;28;20035;-81
2023/11/28 07:13:07;;;;;;;8.35;4.57;;;;;;;-1.05;100.00;100817.63;5035818;28;20033;-81
2023/11/28 07:15:33;;;;;;;8.75;4.47;;;;;;;-1.15;100.00;100809.47;5019460;28;20025;-81
2023/11/28 07:18:01;;;;;;;9.48;4.25;;;;;;;-1.34;100.00;100814.25;5019475;28;20529;-81
2023/11/28 07:20:29;;;;;;;9.65;4.93;;;;;;;-1.41;100.00;100811.13;5018826;28;20049;-81
2023/11/28 07:22:57;;;;;;;12.77;4.72;;;;;;;-1.56;100.00;100812.13;5035820;28;20032;-80
2023/11/28 07:25:26;;;;;;;7.88;4.20;;;;;;;-1.59;100.00;100804.38;5035613;28;20028;-81
2023/11/28 07:27:54;;;;;;;10.30;3.85;;;;;;;-1.53;100.00;100806.66;5036535;28;20434;-81
2023/11/28 07:30:20;;;;;;;10.90;4.57;;;;;;;-1.46;100.00;100804.47;5019201;28;20041;-81
2023/11/28 07:32:53;;;;;;;10.68;4.43;;;;;;;-1.49;100.00;100802.84;5036405;28;20036;-81
2023/11/28 07:35:20;;;;;;;9.02;3.55;;;;;;;-1.37;100.00;100804.72;5035458;28;20055;-81
2023/11/28 07:37:48;;;;;;;7.00;3.70;;;;;;;-1.31;100.00;100810.56;5035690;28;20033;-80
2023/11/28 07:40:14;;;;;;;9.25;4.57;;;;;;;-1.33;100.00;100814.13;5017949;28;20033;-81
2023/11/28 07:42:40;;;;;;;9.77;4.40;;;;;;;-1.35;100.00;100815.16;5035030;28;20437;-81
2023/11/28 07:45:08;;;;;;;14.75;4.97;;;;;;;-1.34;100.00;100809.81;5019100;28;20032;-81
2023/11/28 07:47:36;;;;;;;14.52;4.72;;;;;;;-1.25;100.00;100815.44;5019135;28;20119;-81
2023/11/28 07:50:05;;;;;;;12.80;5.45;;;;;;;-1.13;100.00;100814.66;5051737;28;20033;-81
2023/11/28 07:52:34;;;;;;;6.25;3.45;;;;;;;-1.00;100.00;100810.25;5019117;28;20390;-80
2023/11/28 07:55:00;;;;;;;11.05;4.43;;;;;;;-0.94;100.00;100804.56;5035938;28;20115;-81
2023/11/28 07:57:28;;;;;;;14.45;6.20;;;;;;;-0.89;100.00;100809.56;5019095;28;20055;-81
2023/11/28 07:59:53;;;;;;;13.77;5.40;;;;;;;-0.98;100.00;100792.53;5051667;28;20044;-82
2023/11/28 08:02:19;;;;;;;17.52;5.65;;;;;;;-1.02;100.00;100809.50;5051562;28;20415;-81
2023/11/28 08:04:47;;;;;;;24.98;7.68;;;;;;;-1.12;100.00;100811.06;5019034;28;20043;-81
2023/11/28 08:07:13;;;;;;;17.35;7.03;;;;;;;-1.10;100.00;100811.81;5019553;28;20041;-81
2023/11/28 08:09:39;;;;;;;15.23;5.75;;;;;;;-1.12;100.00;100816.34;5018637;28;20479;-80
2023/11/28 08:12:04;;;;;;;11.57;5.50;;;;;;;-1.22;100.00;100817.88;5018654;28;20044;-80
2023/11/28 08:14:38;;;;;;;10.05;5.13;;;;;;;-1.29;100.00;100806.03;5036046;28;20120;-81
2023/11/28 08:17:07;;;;;;;12.07;4.93;;;;;;;-1.24;100.00;100802.16;5038785;28;20033;-80
2023/11/28 08:19:33;;;;;;;20.38;7.78;;;;;;;-1.22;100.00;100799.41;5022452;28;20036;-80
2023/11/28 08:21:59;;;;;;;22.40;8.18;;;;;;;-1.08;100.00;100817.00;5055066;28;20025;-80
2023/11/28 08:24:25;;;;;;;7.47;3.63;;;;;;;-1.07;100.00;100803.69;5022360;28;20361;-80
2023/11/28 08:26:50;;;;;;;7.43;4.20;;;;;;;-1.14;100.00;100799.75;5022306;28;20116;-80
2023/11/28 08:29:16;;;;;;;9.80;4.43;;;;;;;-1.18;100.00;100798.28;5022284;28;20029;-81
2023/11/28 08:31:41;;;;;;;6.72;3.63;;;;;;;-1.21;100.00;100795.84;5021927;28;20075;-80
2023/11/28 08:34:08;;;;;;;13.73;5.38;;;;;;;-1.28;100.00;100797.16;5038156;28;20130;-81
2023/11/28 08:36:47;;;;;;;13.15;6.00;;;;;;;-1.37;100.00;100796.81;5055094;28;20045;-81
2023/11/28 08:39:15;;;;;;;13.93;4.55;;;;;;;-1.45;100.00;100787.72;5054447;28;20098;-81
2023/11/28 08:41:41;;;;;;;11.95;4.13;;;;;;;-1.40;100.00;100799.66;5021890;28;20124;-81
2023/11/28 08:44:08;;;;;;;9.23;4.32;;;;;;;-1.46;100.00;100792.13;5054914;28;20082;-81
2023/11/28 08:46:35;;;;;;;13.35;4.28;;;;;;;-1.65;100.00;100781.06;5037976;28;20388;-80
2023/11/28 08:49:01;;;;;;;9.80;4.03;;;;;;;-1.72;100.00;100795.56;5054755;28;20045;-80
2023/11/28 08:51:26;;;;;;;11.60;4.30;;;;;;;-1.73;100.00;100797.34;5038211;28;20085;-81
2023/11/28 08:53:56;;;;;;;8.20;3.13;;;;;;;-1.67;100.00;100802.22;5021794;28;20463;-80
2023/11/28 08:56:23;;;;;;;11.82;6.15;;;;;;;-1.29;100.00;100811.31;5021994;28;20132;-80
2023/11/28 08:58:49;;;;;;;18.85;7.80;;;;;;;-1.20;100.00;100816.81;5022142;28;20438;-81
2023/11/28 09:01:15;;;;;;;15.80;6.68;;;;;;;-1.18;100.00;100822.00;5021518;28;20067;-80
2023/11/28 09:03:40;;;;;;;17.13;6.65;;;;;;;-1.02;100.00;100820.06;5021415;28;20449;-81
2023/11/28 09:06:07;;;;;;;15.98;5.90;;;;;;;-0.83;100.00;100814.44;5021524;28;20055;-81
2023/11/28 09:08:36;;;;;;;13.15;6.40;;;;;;;-0.59;100.00;100814.59;5021087;28;20029;-81
2023/11/28 09:11:05;;;;;;;16.35;5.55;;;;;;;-0.42;100.00;100807.31;5038536;28;20041;-80
2023/11/28 09:13:33;;;;;;;17.65;7.03;;;;;;;-0.34;100.00;100807.66;5037743;28;20068;-82
2023/11/28 09:16:02;;;;;;;17.60;7.95;;;;;;;-0.32;100.00;100811.03;5021631;28;20040;-83
2023/11/28 09:18:28;;;;;;;15.48;7.32;;;;;;;-0.27;100.00;100812.41;5037855;28;20033;-83
2023/11/28 09:20:54;;;;;;;29.92;11.65;;;;;;;-0.22;100.00;100806.81;5037556;28;20048;-83
2023/11/28 09:23:19;;;;;;;21.13;10.45;;;;;;;-0.15;100.00;100802.81;5037198;28;20040;-84
2023/11/28 09:25:45;;;;;;;24.27;11.48;;;;;;;-0.09;100.00;100797.09;5020317;28;20090;-84
2023/11/28 09:28:11;;;;;;;20.83;10.63;;;;;;;0.06;100.00;100797.81;5052855;28;20360;-84
2023/11/28 09:30:36;;;;;;;26.98;11.82;;;;;;;0.23;100.00;100807.22;5055810;28;20032;-81
2023/11/28 09:33:02;;;;;;;18.00;10.20;;;;;;;0.39;100.00;100809.63;5057115;28;20040;-83
2023/11/28 09:35:28;;;;;;;26.00;11.98;;;;;;;0.56;100.00;100808.44;5037053;28;20025;-83
2023/11/28 09:37:54;;;;;;;23.73;11.10;;;;;;;0.74;100.00;100800.94;5037465;28;20055;-83
2023/11/28 09:40:20;;;;;;;27.60;11.85;;;;;;;0.91;100.00;100800.56;5036816;28;20104;-83
2023/11/28 09:42:51;;;;;;;30.35;14.93;;;;;;;1.08;100.00;100809.91;5053550;28;20159;-83
2023/11/28 09:45:19;;;;;;;25.67;11.07;;;;;;;1.28;100.00;100811.09;5020432;28;20036;-83
2023/11/28 09:47:45;;;;;;;26.52;10.38;;;;;;;1.60;100.00;100810.47;5020884;28;20032;-83
2023/11/28 09:50:12;;;;;;;25.75;11.38;;;;;;;1.71;100.00;100808.66;5036861;28;20044;-84
2023/11/28 09:52:42;;;;;;;22.15;10.85;;;;;;;1.83;100.00;100808.72;5036992;28;20068;-84
2023/11/28 09:55:08;;;;;;;31.00;14.98;;;;;;;1.96;100.00;100805.00;5020888;28;20027;-84
2023/11/28 09:57:41;;;;;;;28.92;12.48;;;;;;;2.05;100.00;100811.38;5037130;28;20036;-83
2023/11/28 10:00:10;;;;;;;29.92;14.57;;;;;;;2.17;100.00;100813.09;5037140;28;20468;-84
2023/11/28 10:02:41;;;;;;;27.05;13.98;;;;;;;2.26;100.00;100813.31;5052952;28;20043;-84
2023/11/28 10:05:08;;;;;;;26.08;13.13;;;;;;;2.35;100.00;100810.75;5020313;28;20037;-85
2023/11/28 10:07:34;;;;;;;23.67;10.90;;;;;;;2.53;100.00;100815.59;5036886;28;20037;-82
2023/11/28 10:10:01;;;;;;;22.50;10.15;;;;;;;2.68;100.00;100814.38;5036755;28;20029;-85
2023/11/28 10:12:26;;;;;;;22.80;10.45;;;;;;;2.94;100.00;100812.25;5020210;28;20123;-83
2023/11/28 10:14:53;;;;;;;20.67;8.88;;;;;;;3.20;100.00;100811.91;5036031;28;20493;-83
2023/11/28 10:17:22;;;;;;;15.00;7.10;;;;;;;3.31;100.00;100809.22;5036693;28;20155;-84
2023/11/28 10:19:47;;;;;;;13.98;5.60;;;;;;;3.45;100.00;100816.88;5036448;28;20037;-86
2023/11/28 10:22:15;;;;;;;15.32;5.53;;;;;;;3.67;100.00;100804.44;5036348;28;20534;-85
2023/11/28 10:24:41;;;;;;;14.25;6.07;;;;;;;4.39;100.00;100815.03;5020254;28;20047;-85
2023/11/28 10:27:06;;;;;;;13.75;5.35;;;;;;;4.62;100.00;100804.16;5036484;28;20098;-86
2023/11/28 10:29:33;;;;;;;13.43;6.18;;;;;;;4.21;100.00;100808.66;5036358;28;20383;-85
2023/11/28 10:32:00;;;;;;;18.60;7.30;;;;;;;3.86;100.00;100809.84;5019684;28;20032;-86
2023/11/28 10:34:28;;;;;;;18.08;6.32;;;;;;;3.42;100.00;100813.66;5019842;28;20037;-85
2023/11/28 10:36:53;;;;;;;15.57;7.88;;;;;;;2.97;100.00;100811.16;5036438;28;20463;-85
2023/11/28 10:39:20;;;;;;;15.13;7.68;;;;;;;2.60;100.00;100807.00;5019113;28;20051;-81
2023/11/28 10:41:49;;;;;;;17.98;8.82;;;;;;;2.36;100.00;100816.94;5002565;28;20041;-81
2023/11/28 10:44:14;;;;;;;16.30;9.10;;;;;;;2.27;100.00;100812.34;5034792;28;20029;-82
2023/11/28 10:46:46;;;;;;;16.88;6.75;;;;;;;2.40;100.00;100818.38;5019444;28;20132;-81
2023/11/28 10:49:12;;;;;;;18.65;6.93;;;;;;;2.65;100.00;100814.63;5002935;28;20536;-82
2023/11/28 10:51:39;;;;;;;21.25;7.57;;;;;;;3.20;100.00;100814.56;5018997;28;20082;-82
2023/11/28 10:54:07;;;;;;;19.48;8.35;;;;;;;3.94;100.00;100817.19;5019248;28;20091;-82
2023/11/28 10:56:46;;;;;;;25.38;11.35;;;;;;;4.49;100.00;100815.06;5051189;28;20527;-81
2023/11/28 10:59:40;;;;;;;34.20;14.65;;;;;;;4.38;100.00;100813.34;5048618;28;20464;-83
2023/11/28 11:02:06;;;;;;;26.98;13.75;;;;;;;3.88;100.00;100805.25;5031811;28;20519;-82
2023/11/28 11:04:32;;;;;;;26.05;13.60;;;;;;;3.49;100.00;100805.03;5015287;28;20043;-82
2023/11/28 11:06:59;;;;;;;29.60;15.82;;;;;;;3.24;100.00;100805.38;5014444;28;20029;-82
2023/11/28 11:09:26;;;;;;;23.75;9.35;;;;;;;3.17;100.00;100798.88;5014383;28;20044;-82
2023/11/28 11:11:55;;;;;;;17.50;8.20;;;;;;;3.51;100.00;100808.38;5032277;28;20148;-82